Time;durP1;ratioP1;P1;durP2;ratioP2;P2;SDS_P1;SDS_P2;PMS_P1;PMS_P2;Temp;Humidity;BMP_temperature;BMP_pressure;BME280_temperature;BME280_humidity;BME280_pressure;Samples;Min_cycle;Max_cycle;Signal;HPM_P1;HPM_P2
2022/09/03 00:01:24;;;;;;;;;;;18.60;96.30;;;;;;5022949;28;20405;-65
2022/09/03 00:03:52;;;;;;;;;;;18.60;96.50;;;;;;5022980;28;19929;-65
2022/09/03 00:06:22;;;;;;;;;;;18.50;96.60;;;;;;5020576;28;19963;-65
2022/09/03 00:08:53;;;;;;;;;;;18.50;96.70;;;;;;5022689;28;19929;-66
2022/09/03 00:11:22;;;;;;;;;;;18.40;96.70;;;;;;5027589;28;19944;-66
2022/09/03 00:13:51;;;;;;;;;;;18.40;96.70;;;;;;5019661;28;20392;-66
2022/09/03 00:16:20;;;;;;;;;;;18.30;96.70;;;;;;5021751;28;19933;-65
2022/09/03 00:18:49;;;;;;;;;;;18.30;96.80;;;;;;5016648;28;19928;-66
2022/09/03 00:21:18;;;;;;;;;;;18.30;96.80;;;;;;5011616;28;20363;-65
2022/09/03 00:23:47;;;;;;;;;;;18.30;96.70;;;;;;5016253;28;19979;-65
2022/09/03 00:26:18;;;;;;;;;;;18.30;96.70;;;;;;5009027;28;19925;-66
2022/09/03 00:28:46;;;;;;;;;;;18.30;96.80;;;;;;5022113;28;19964;-66
2022/09/03 00:31:17;;;;;;;;;;;18.30;96.80;;;;;;5022718;28;19925;-66
2022/09/03 00:33:44;;;;;;;;;;;18.30;96.90;;;;;;5022774;28;19975;-66
2022/09/03 00:36:14;;;;;;;;;;;18.30;96.90;;;;;;5020593;28;19925;-67
2022/09/03 00:38:41;;;;;;;;;;;18.30;96.90;;;;;;5020612;28;19987;-66
2022/09/03 00:41:09;;;;;;;;;;;18.20;96.90;;;;;;5021693;28;19932;-66
2022/09/03 00:43:46;;;;;;;;;;;18.20;97.00;;;;;;5024374;28;19986;-66
2022/09/03 00:46:18;;;;;;;;;;;18.30;96.90;;;;;;5022141;28;20411;-65
2022/09/03 00:48:50;;;;;;;;;;;18.30;97.00;;;;;;5014831;28;19932;-66
2022/09/03 00:51:24;;;;;;;;;;;18.20;97.00;;;;;;5021732;28;19925;-66
2022/09/03 00:53:54;;;;;;;;;;;18.20;97.00;;;;;;5023085;28;19935;-66
2022/09/03 00:56:26;;;;;;;;;;;18.20;97.20;;;;;;5021956;28;19929;-66
2022/09/03 00:59:03;;;;;;;;;;;18.20;97.20;;;;;;5016669;28;19956;-66
2022/09/03 01:01:36;;;;;;;;;;;18.10;97.30;;;;;;5010611;28;19933;-66
2022/09/03 01:04:08;;;;;;;;;;;18.00;97.30;;;;;;5022368;28;19929;-66
2022/09/03 01:06:40;;;;;;;;;;;18.00;97.50;;;;;;5018053;28;19932;-66
2022/09/03 01:09:12;;;;;;;;;;;18.00;97.60;;;;;;5018508;28;19929;-66
2022/09/03 01:11:46;;;;;;;;;;;18.00;97.60;;;;;;5022573;28;19928;-65
2022/09/03 01:14:19;;;;;;;;;;;17.90;97.70;;;;;;5010463;28;20023;-66
2022/09/03 01:16:49;;;;;;;;;;;18.00;97.70;;;;;;5022366;28;19925;-65
2022/09/03 01:19:27;;;;;;;;;;;17.90;97.80;;;;;;5012283;28;20347;-65
2022/09/03 01:22:04;;;;;;;;;;;17.90;97.80;;;;;;5017465;28;19957;-65
2022/09/03 01:24:39;;;;;;;;;;;17.90;97.80;;;;;;5020951;28;20494;-65
2022/09/03 01:27:15;;;;;;;;;;;17.90;97.90;;;;;;5025624;28;19982;-66
2022/09/03 01:29:47;;;;;;;;;;;17.90;98.00;;;;;;5021718;28;19929;-66
2022/09/03 01:32:18;;;;;;;;;;;17.80;98.00;;;;;;5013979;28;20407;-66
2022/09/03 01:34:49;;;;;;;;;;;17.80;98.20;;;;;;5018106;28;19929;-66
2022/09/03 01:37:20;;;;;;;;;;;17.80;98.20;;;;;;5023249;28;20331;-66
2022/09/03 01:39:53;;;;;;;;;;;17.80;98.20;;;;;;5018411;28;20332;-66
2022/09/03 01:42:23;;;;;;;;;;;17.80;98.20;;;;;;5017613;28;19929;-66
2022/09/03 01:45:05;;;;;;;;;;;17.80;98.30;;;;;;5025605;28;19931;-66
2022/09/03 01:47:38;;;;;;;;;;;17.70;98.40;;;;;;5017390;28;19976;-66
2022/09/03 01:50:07;;;;;;;;;;;17.70;98.50;;;;;;5017580;28;19926;-66
2022/09/03 01:52:40;;;;;;;;;;;17.60;98.50;;;;;;5020324;28;19967;-66
2022/09/03 01:55:13;;;;;;;;;;;17.60;98.70;;;;;;5024686;28;19925;-66
2022/09/03 01:57:48;;;;;;;;;;;17.50;98.80;;;;;;5023906;28;19929;-66
2022/09/03 02:00:18;;;;;;;;;;;17.50;99.00;;;;;;5023116;28;19925;-66
2022/09/03 02:02:47;;;;;;;;;;;17.60;98.90;;;;;;5021530;28;19925;-66
2022/09/03 02:05:16;;;;;;;;;;;17.60;98.90;;;;;;5002422;28;19931;-66
2022/09/03 02:07:44;;;;;;;;;;;17.50;99.10;;;;;;5021485;28;19925;-66
2022/09/03 02:10:12;;;;;;;;;;;17.40;99.10;;;;;;5018711;28;20367;-66
2022/09/03 02:12:42;;;;;;;;;;;17.40;99.20;;;;;;5025354;28;20289;-66
2022/09/03 02:15:11;;;;;;;;;;;17.40;99.30;;;;;;5025599;28;20372;-66
2022/09/03 02:17:40;;;;;;;;;;;17.40;99.30;;;;;;5020341;28;19925;-66
2022/09/03 02:20:10;;;;;;;;;;;17.40;99.40;;;;;;5025227;28;20388;-66
2022/09/03 02:22:38;;;;;;;;;;;17.30;99.30;;;;;;5016835;28;20430;-66
2022/09/03 02:25:05;;;;;;;;;;;17.30;99.50;;;;;;5040385;28;19940;-66
2022/09/03 02:27:32;;;;;;;;;;;17.20;99.60;;;;;;5022544;28;19929;-66
2022/09/03 02:29:59;;;;;;;;;;;17.30;99.70;;;;;;5016739;28;19925;-66
2022/09/03 02:32:26;;;;;;;;;;;17.20;99.80;;;;;;5022585;28;19925;-65
2022/09/03 02:34:54;;;;;;;;;;;17.10;99.80;;;;;;5024894;28;20324;-66
2022/09/03 02:37:20;;;;;;;;;;;17.10;99.90;;;;;;5025749;28;20447;-66
2022/09/03 02:39:48;;;;;;;;;;;17.10;99.90;;;;;;5021805;28;20277;-66
2022/09/03 02:42:14;;;;;;;;;;;17.10;99.90;;;;;;5026298;28;19925;-66
2022/09/03 02:44:42;;;;;;;;;;;17.10;99.90;;;;;;5022551;28;19952;-66
2022/09/03 02:47:09;;;;;;;;;;;17.10;99.90;;;;;;5023859;28;19925;-65
2022/09/03 02:49:35;;;;;;;;;;;17.10;99.90;;;;;;5024422;28;19925;-66
2022/09/03 02:52:05;;;;;;;;;;;17.10;99.90;;;;;;5023251;28;20470;-66
2022/09/03 02:54:35;;;;;;;;;;;17.10;99.90;;;;;;5022645;28;19929;-66
2022/09/03 02:57:02;;;;;;;;;;;17.20;99.90;;;;;;5024050;28;20435;-66
2022/09/03 02:59:28;;;;;;;;;;;17.20;99.90;;;;;;5022043;28;19941;-66
2022/09/03 03:01:55;;;;;;;;;;;17.30;99.90;;;;;;5015087;28;19925;-66
2022/09/03 03:04:22;;;;;;;;;;;17.40;99.90;;;;;;5013652;28;19933;-66
2022/09/03 03:06:49;;;;;;;;;;;17.40;99.90;;;;;;5019182;28;19931;-65
2022/09/03 03:09:18;;;;;;;;;;;17.50;99.90;;;;;;5022665;28;19957;-66
2022/09/03 03:11:45;;;;;;;;;;;17.50;99.90;;;;;;5015973;28;19925;-66
2022/09/03 03:14:12;;;;;;;;;;;17.50;99.90;;;;;;5015074;28;19935;-65
2022/09/03 03:16:39;;;;;;;;;;;17.60;99.90;;;;;;5019560;28;19925;-66
2022/09/03 03:19:05;;;;;;;;;;;17.60;99.90;;;;;;5013662;28;19924;-66
2022/09/03 03:21:32;;;;;;;;;;;17.60;99.90;;;;;;5015606;28;19929;-66
2022/09/03 03:24:00;;;;;;;;;;;17.60;99.90;;;;;;5018750;28;20360;-66
2022/09/03 03:26:29;;;;;;;;;;;17.60;99.90;;;;;;5015562;28;19925;-65
2022/09/03 03:28:57;;;;;;;;;;;17.60;99.90;;;;;;5019343;28;19975;-66
2022/09/03 03:31:24;;;;;;;;;;;17.60;99.90;;;;;;5015509;28;19926;-66
2022/09/03 03:33:51;;;;;;;;;;;17.60;99.90;;;;;;5021460;28;19964;-65
2022/09/03 03:36:18;;;;;;;;;;;17.60;99.90;;;;;;5026237;28;20016;-66
2022/09/03 03:38:45;;;;;;;;;;;17.60;99.90;;;;;;5015129;28;19925;-66
2022/09/03 03:41:14;;;;;;;;;;;17.60;99.90;;;;;;5019492;28;20162;-66
2022/09/03 03:43:42;;;;;;;;;;;17.60;99.90;;;;;;5015741;28;19925;-66
2022/09/03 03:46:10;;;;;;;;;;;17.60;99.90;;;;;;5027711;28;19933;-66
2022/09/03 03:48:38;;;;;;;;;;;17.60;99.90;;;;;;5015116;28;19929;-66
2022/09/03 03:51:06;;;;;;;;;;;17.60;99.90;;;;;;5015162;28;19925;-66
2022/09/03 03:53:33;;;;;;;;;;;17.50;99.90;;;;;;5016952;28;19929;-66
2022/09/03 03:56:01;;;;;;;;;;;17.60;99.90;;;;;;5021798;28;19979;-66
2022/09/03 03:58:28;;;;;;;;;;;17.70;99.90;;;;;;5022642;28;20363;-66
2022/09/03 04:01:04;;;;;;;;;;;17.60;99.90;;;;;;5019609;28;19932;-67
2022/09/03 04:03:31;;;;;;;;;;;17.70;99.90;;;;;;5022587;28;19925;-65
2022/09/03 04:05:58;;;;;;;;;;;17.70;99.90;;;;;;5015129;28;19925;-65
2022/09/03 04:08:25;;;;;;;;;;;17.70;99.90;;;;;;5020676;28;19975;-66
2022/09/03 04:10:52;;;;;;;;;;;17.70;99.90;;;;;;5022760;28;19929;-66
2022/09/03 04:13:19;;;;;;;;;;;17.60;99.90;;;;;;5009009;28;19931;-66
2022/09/03 04:15:45;;;;;;;;;;;17.70;99.90;;;;;;5015060;28;19950;-66
2022/09/03 04:18:14;;;;;;;;;;;17.60;99.90;;;;;;5009040;28;19925;-65
2022/09/03 04:20:40;;;;;;;;;;;17.60;99.90;;;;;;5009675;28;19925;-66
2022/09/03 04:23:07;;;;;;;;;;;17.70;99.90;;;;;;5008194;28;19925;-66
2022/09/03 04:25:34;;;;;;;;;;;17.50;99.90;;;;;;5025302;28;19925;-66
2022/09/03 04:28:02;;;;;;;;;;;17.60;99.90;;;;;;5008573;28;19929;-66
2022/09/03 04:30:29;;;;;;;;;;;17.50;99.90;;;;;;5023262;28;19964;-65
2022/09/03 04:32:55;;;;;;;;;;;17.50;99.90;;;;;;5020162;28;20446;-66
2022/09/03 04:35:24;;;;;;;;;;;17.40;99.90;;;;;;5018003;28;19933;-65
2022/09/03 04:37:52;;;;;;;;;;;17.50;99.90;;;;;;5015172;28;19929;-66
2022/09/03 04:40:19;;;;;;;;;;;17.40;99.90;;;;;;5018659;28;19979;-66
2022/09/03 04:42:45;;;;;;;;;;;17.40;99.90;;;;;;5023966;28;19949;-66
2022/09/03 04:45:17;;;;;;;;;;;17.40;99.90;;;;;;5020550;28;19925;-66
2022/09/03 04:47:45;;;;;;;;;;;17.40;99.90;;;;;;5022511;28;19929;-65
2022/09/03 04:50:12;;;;;;;;;;;17.40;99.90;;;;;;5022443;28;20035;-66
2022/09/03 04:52:40;;;;;;;;;;;17.30;99.90;;;;;;5013445;28;19926;-66
2022/09/03 04:55:09;;;;;;;;;;;17.30;99.90;;;;;;5017497;28;19926;-64
2022/09/03 04:57:36;;;;;;;;;;;17.30;99.90;;;;;;5017144;28;20402;-66
2022/09/03 05:00:04;;;;;;;;;;;17.30;99.90;;;;;;5016111;28;19979;-66
2022/09/03 05:02:31;;;;;;;;;;;17.20;99.90;;;;;;5004452;28;20307;-66
2022/09/03 05:04:58;;;;;;;;;;;17.30;99.90;;;;;;5011646;28;19952;-65
2022/09/03 05:07:27;;;;;;;;;;;17.30;99.90;;;;;;5018923;28;19983;-66
2022/09/03 05:09:57;;;;;;;;;;;17.20;99.90;;;;;;5007848;28;19957;-66
2022/09/03 05:12:24;;;;;;;;;;;17.20;99.90;;;;;;5011350;28;19933;-65
2022/09/03 05:14:50;;;;;;;;;;;17.20;99.90;;;;;;5009014;28;19926;-65
2022/09/03 05:17:17;;;;;;;;;;;17.20;99.90;;;;;;5019055;28;20356;-65
2022/09/03 05:19:44;;;;;;;;;;;17.20;99.90;;;;;;5029412;28;19929;-65
2022/09/03 05:22:11;;;;;;;;;;;17.10;99.90;;;;;;5012417;28;19983;-65
2022/09/03 05:24:37;;;;;;;;;;;17.20;99.90;;;;;;5021393;28;20273;-65
2022/09/03 05:27:06;;;;;;;;;;;17.20;99.90;;;;;;5018841;28;19929;-64
2022/09/03 05:29:33;;;;;;;;;;;17.20;99.90;;;;;;5017674;28;19925;-65
2022/09/03 05:31:59;;;;;;;;;;;17.10;99.90;;;;;;5019814;28;19932;-64
2022/09/03 05:34:26;;;;;;;;;;;17.10;99.90;;;;;;5015452;28;19925;-64
2022/09/03 05:36:54;;;;;;;;;;;17.10;99.90;;;;;;5017718;28;20336;-64
2022/09/03 05:39:20;;;;;;;;;;;17.20;99.90;;;;;;5015339;28;20405;-64
2022/09/03 05:41:49;;;;;;;;;;;17.10;99.90;;;;;;5013997;28;19988;-64
2022/09/03 05:44:17;;;;;;;;;;;17.20;99.90;;;;;;5014844;28;19925;-64
2022/09/03 05:46:44;;;;;;;;;;;17.20;99.90;;;;;;5014099;28;19925;-64
2022/09/03 05:49:11;;;;;;;;;;;17.20;99.90;;;;;;5020582;28;19925;-65
2022/09/03 05:51:38;;;;;;;;;;;17.30;99.90;;;;;;5021101;28;19925;-64
2022/09/03 05:54:07;;;;;;;;;;;17.30;99.90;;;;;;5017235;28;19929;-64
2022/09/03 05:56:35;;;;;;;;;;;17.40;99.90;;;;;;5011018;28;19933;-64
2022/09/03 05:59:04;;;;;;;;;;;17.40;99.90;;;;;;5018195;28;20402;-64
2022/09/03 06:01:33;;;;;;;;;;;17.50;99.90;;;;;;5038488;28;19953;-64
2022/09/03 06:04:01;;;;;;;;;;;17.50;99.90;;;;;;5005699;28;19925;-64
2022/09/03 06:06:28;;;;;;;;;;;17.60;99.90;;;;;;5006197;28;19934;-64
2022/09/03 06:08:56;;;;;;;;;;;17.70;99.90;;;;;;5010209;28;20388;-64
2022/09/03 06:11:26;;;;;;;;;;;17.80;99.90;;;;;;5016072;28;20088;-64
2022/09/03 06:13:53;;;;;;;;;;;17.90;99.90;;;;;;5012794;28;19925;-64
2022/09/03 06:16:20;;;;;;;;;;;17.90;99.90;;;;;;5006657;28;19930;-64
2022/09/03 06:18:50;;;;;;;;;;;17.90;99.90;;;;;;5013390;28;20427;-64
2022/09/03 06:21:17;;;;;;;;;;;18.00;99.90;;;;;;5025249;28;20391;-64
2022/09/03 06:23:43;;;;;;;;;;;18.00;99.90;;;;;;5028218;28;20365;-64
2022/09/03 06:26:11;;;;;;;;;;;18.00;99.90;;;;;;5007965;28;19929;-64
2022/09/03 06:28:39;;;;;;;;;;;18.10;99.90;;;;;;5004886;28;19926;-65
2022/09/03 06:31:06;;;;;;;;;;;18.10;99.90;;;;;;5015748;28;19971;-64
2022/09/03 06:33:34;;;;;;;;;;;18.10;99.90;;;;;;5024816;28;19987;-64
2022/09/03 06:36:04;;;;;;;;;;;18.10;99.90;;;;;;5020081;28;20043;-64
2022/09/03 06:38:32;;;;;;;;;;;18.10;99.90;;;;;;5018748;28;19971;-63
2022/09/03 06:41:02;;;;;;;;;;;18.10;99.90;;;;;;5024688;28;19929;-64
2022/09/03 06:43:29;;;;;;;;;;;18.20;99.90;;;;;;5017959;28;20384;-64
2022/09/03 06:45:57;;;;;;;;;;;18.20;99.90;;;;;;5027183;28;19983;-65
2022/09/03 06:48:24;;;;;;;;;;;18.20;99.90;;;;;;5024594;28;19925;-65
2022/09/03 06:50:54;;;;;;;;;;;18.20;99.90;;;;;;5026979;28;20340;-65
2022/09/03 06:53:24;;;;;;;;;;;18.30;99.90;;;;;;5024604;28;19932;-64
2022/09/03 06:55:55;;;;;;;;;;;18.30;99.90;;;;;;5021212;28;19925;-64
2022/09/03 06:58:23;;;;;;;;;;;18.30;99.90;;;;;;5023778;28;19979;-64
2022/09/03 07:00:51;;;;;;;;;;;18.30;99.90;;;;;;5016136;28;19944;-65
2022/09/03 07:03:18;;;;;;;;;;;18.30;99.90;;;;;;5028798;28;19925;-65
2022/09/03 07:05:45;;;;;;;;;;;18.40;99.90;;;;;;5024061;28;19925;-65
2022/09/03 07:08:12;;;;;;;;;;;18.40;99.90;;;;;;5023071;28;20003;-66
2022/09/03 07:10:42;;;;;;;;;;;18.40;99.90;;;;;;5020494;28;19925;-65
2022/09/03 07:13:09;;;;;;;;;;;18.50;99.90;;;;;;5020133;28;19933;-65
2022/09/03 07:15:35;;;;;;;;;;;18.50;99.90;;;;;;5017667;28;19925;-65
2022/09/03 07:18:02;;;;;;;;;;;18.60;99.90;;;;;;5012540;28;19964;-65
2022/09/03 07:20:29;;;;;;;;;;;18.60;99.90;;;;;;5023415;28;20498;-65
2022/09/03 07:22:56;;;;;;;;;;;18.60;99.90;;;;;;5015614;28;19978;-65
2022/09/03 07:25:23;;;;;;;;;;;18.60;99.90;;;;;;5015770;28;20372;-65
2022/09/03 07:27:52;;;;;;;;;;;18.60;99.90;;;;;;5023488;28;20407;-65
2022/09/03 07:30:19;;;;;;;;;;;18.50;99.90;;;;;;5017618;28;19925;-65
2022/09/03 07:32:46;;;;;;;;;;;18.60;99.90;;;;;;5018253;28;19926;-66
2022/09/03 07:35:13;;;;;;;;;;;18.60;99.90;;;;;;5023620;28;20039;-63
2022/09/03 07:37:40;;;;;;;;;;;18.60;99.90;;;;;;5024799;28;19931;-64
2022/09/03 07:40:08;;;;;;;;;;;18.60;99.90;;;;;;5021413;28;20181;-64
2022/09/03 07:42:37;;;;;;;;;;;18.60;99.90;;;;;;5027303;28;20400;-65
2022/09/03 07:45:08;;;;;;;;;;;18.70;99.90;;;;;;5018624;28;19925;-65
2022/09/03 07:47:35;;;;;;;;;;;18.80;99.90;;;;;;5016996;28;19968;-65
2022/09/03 07:50:03;;;;;;;;;;;18.80;99.90;;;;;;5011113;28;19929;-64
2022/09/03 07:52:30;;;;;;;;;;;18.90;99.90;;;;;;5017059;28;19925;-65
2022/09/03 07:54:58;;;;;;;;;;;19.00;99.90;;;;;;5023017;28;19925;-65
2022/09/03 07:57:24;;;;;;;;;;;19.00;99.90;;;;;;5024775;28;19932;-64
2022/09/03 07:59:51;;;;;;;;;;;19.10;99.90;;;;;;5020807;28;19925;-64
2022/09/03 08:02:20;;;;;;;;;;;19.20;99.90;;;;;;5017011;28;19933;-63
2022/09/03 08:04:47;;;;;;;;;;;19.20;99.90;;;;;;5019247;28;19925;-63
2022/09/03 08:07:13;;;;;;;;;;;19.40;99.90;;;;;;5024462;28;19925;-64
2022/09/03 08:09:40;;;;;;;;;;;19.60;99.90;;;;;;5021149;28;19975;-65
2022/09/03 08:12:07;;;;;;;;;;;19.80;99.90;;;;;;5019470;28;19927;-70
2022/09/03 08:14:34;;;;;;;;;;;19.90;99.90;;;;;;5017548;28;19976;-64
2022/09/03 08:17:01;;;;;;;;;;;19.90;99.90;;;;;;5017384;28;19925;-64
2022/09/03 08:19:29;;;;;;;;;;;19.90;99.90;;;;;;5016877;28;20392;-65
2022/09/03 08:21:56;;;;;;;;;;;19.80;99.90;;;;;;5019989;28;19940;-64
2022/09/03 08:24:25;;;;;;;;;;;19.90;99.90;;;;;;5015024;28;19933;-65
2022/09/03 08:26:51;;;;;;;;;;;20.00;99.90;;;;;;5014534;28;19925;-64
2022/09/03 08:29:19;;;;;;;;;;;20.10;99.90;;;;;;5017426;28;19944;-64
2022/09/03 08:31:45;;;;;;;;;;;20.30;99.90;;;;;;5025657;28;19926;-63
2022/09/03 08:34:13;;;;;;;;;;;20.40;99.90;;;;;;5014108;28;19925;-69
2022/09/03 08:36:41;;;;;;;;;;;20.40;99.90;;;;;;5014038;28;19925;-64
2022/09/03 08:39:09;;;;;;;;;;;20.40;99.90;;;;;;5013936;28;20286;-63
2022/09/03 08:41:45;;;;;;;;;;;20.50;99.90;;;;;;5016708;28;19925;-63
2022/09/03 08:44:19;;;;;;;;;;;20.60;99.90;;;;;;5013659;28;19925;-63
2022/09/03 08:46:50;;;;;;;;;;;20.70;99.90;;;;;;5016010;28;19925;-63
2022/09/03 08:49:20;;;;;;;;;;;20.70;99.90;;;;;;5017886;28;19925;-64
2022/09/03 08:51:49;;;;;;;;;;;20.70;99.90;;;;;;5013415;28;19932;-63
2022/09/03 08:54:16;;;;;;;;;;;20.70;99.90;;;;;;5014889;28;19925;-63
2022/09/03 08:56:44;;;;;;;;;;;20.90;99.90;;;;;;5012473;28;19931;-63
2022/09/03 08:59:10;;;;;;;;;;;20.90;99.90;;;;;;5020043;28;19933;-64
2022/09/03 09:01:42;;;;;;;;;;;20.90;99.90;;;;;;5015979;28;19925;-63
2022/09/03 09:04:13;;;;;;;;;;;21.00;99.90;;;;;;5011510;28;19925;-63
2022/09/03 09:06:43;;;;;;;;;;;21.10;99.90;;;;;;5013357;28;20433;-60
2022/09/03 09:09:17;;;;;;;;;;;21.10;99.90;;;;;;5017968;28;19992;-62
2022/09/03 09:11:48;;;;;;;;;;;21.20;99.90;;;;;;5020604;28;20028;-63
2022/09/03 09:14:19;;;;;;;;;;;21.40;99.90;;;;;;5017281;28;19925;-64
2022/09/03 09:16:50;;;;;;;;;;;21.70;99.90;;;;;;5026137;28;19933;-63
2022/09/03 09:19:22;;;;;;;;;;;21.80;99.90;;;;;;5014505;28;19929;-64
2022/09/03 09:21:51;;;;;;;;;;;22.00;99.90;;;;;;5021133;28;20343;-64
2022/09/03 09:24:22;;;;;;;;;;;22.40;99.90;;;;;;5016199;28;19929;-64
2022/09/03 09:26:49;;;;;;;;;;;22.50;99.90;;;;;;5024182;28;20408;-64
2022/09/03 09:29:16;;;;;;;;;;;22.80;99.90;;;;;;5016023;28;19925;-64
2022/09/03 09:31:44;;;;;;;;;;;23.20;99.90;;;;;;5017426;28;19929;-64
2022/09/03 09:34:11;;;;;;;;;;;23.20;99.90;;;;;;5016906;28;19925;-63
2022/09/03 09:36:42;;;;;;;;;;;23.40;99.90;;;;;;5019015;28;19929;-64
2022/09/03 09:39:10;;;;;;;;;;;23.60;99.90;;;;;;5016489;28;20004;-63
2022/09/03 09:41:38;;;;;;;;;;;23.80;99.90;;;;;;5013711;28;19925;-64
2022/09/03 09:44:05;;;;;;;;;;;24.10;99.90;;;;;;5018196;28;20475;-64
2022/09/03 09:46:35;;;;;;;;;;;24.20;99.90;;;;;;5016284;28;20463;-64
2022/09/03 09:49:01;;;;;;;;;;;24.20;99.90;;;;;;5006208;28;19932;-64
2022/09/03 09:51:30;;;;;;;;;;;24.40;99.90;;;;;;5016674;28;19975;-64
2022/09/03 09:54:01;;;;;;;;;;;24.40;99.90;;;;;;5015672;28;20351;-64
2022/09/03 09:56:27;;;;;;;;;;;24.50;99.90;;;;;;5020927;28;20463;-64
2022/09/03 09:59:03;;;;;;;;;;;24.60;99.90;;;;;;5015838;28;19925;-64
2022/09/03 10:01:30;;;;;;;;;;;24.50;99.90;;;;;;5016517;28;19929;-64
2022/09/03 10:03:58;;;;;;;;;;;24.60;99.90;;;;;;5019860;28;19925;-64
2022/09/03 10:09:11;;;;;;;;;;;24.90;99.90;;;;;;5020361;28;20315;-64
2022/09/03 10:11:40;;;;;;;;;;;25.20;99.90;;;;;;5020990;28;19925;-64
2022/09/03 10:14:13;;;;;;;;;;;25.50;99.90;;;;;;5019729;28;19929;-63
2022/09/03 10:16:44;;;;;;;;;;;25.50;99.90;;;;;;5023661;28;19975;-63
2022/09/03 10:19:13;;;;;;;;;;;25.80;99.90;;;;;;5018922;28;19925;-64
2022/09/03 10:21:45;;;;;;;;;;;26.30;99.90;;;;;;5018113;28;19933;-64
2022/09/03 10:24:18;;;;;;;;;;;26.50;99.90;;;;;;5021593;28;20404;-64
2022/09/03 10:26:45;;;;;;;;;;;26.70;99.90;;;;;;5019644;28;19925;-64
2022/09/03 10:29:16;;;;;;;;;;;26.60;99.90;;;;;;5017602;28;19937;-64
2022/09/03 10:31:47;;;;;;;;;;;26.70;99.90;;;;;;5019525;28;19956;-65
2022/09/03 10:34:16;;;;;;;;;;;27.00;99.90;;;;;;5021143;28;19991;-68
2022/09/03 10:36:47;;;;;;;;;;;27.20;99.90;;;;;;5021039;28;20393;-66
2022/09/03 10:39:16;;;;;;;;;;;27.50;99.90;;;;;;5017323;28;19936;-65
2022/09/03 10:41:54;;;;;;;;;;;27.80;99.90;;;;;;5021224;28;19960;-65
2022/09/03 10:44:34;;;;;;;;;;;28.20;99.90;;;;;;5017283;28;20401;-65
2022/09/03 10:47:07;;;;;;;;;;;28.30;99.80;;;;;;5018282;28;20294;-65
2022/09/03 10:49:42;;;;;;;;;;;28.60;99.90;;;;;;5010324;28;19983;-64
2022/09/03 10:52:14;;;;;;;;;;;28.70;99.90;;;;;;5011847;28;19982;-64
2022/09/03 10:54:49;;;;;;;;;;;29.10;99.40;;;;;;5021791;28;19936;-65
2022/09/03 10:57:21;;;;;;;;;;;29.40;99.50;;;;;;5017118;28;19925;-64
2022/09/03 10:59:55;;;;;;;;;;;29.80;99.10;;;;;;5016943;28;19925;-65
2022/09/03 11:02:34;;;;;;;;;;;29.90;98.90;;;;;;5016145;28;19929;-65
2022/09/03 11:05:02;;;;;;;;;;;29.80;98.70;;;;;;5016665;28;19925;-64
2022/09/03 11:07:35;;;;;;;;;;;29.60;98.60;;;;;;5023300;28;19939;-65
2022/09/03 11:10:06;;;;;;;;;;;28.80;98.90;;;;;;5021790;28;19929;-64
2022/09/03 11:12:35;;;;;;;;;;;28.60;99.30;;;;;;5009205;28;19925;-64
2022/09/03 11:15:06;;;;;;;;;;;28.30;99.20;;;;;;5017801;28;20392;-64
2022/09/03 11:17:35;;;;;;;;;;;28.00;99.40;;;;;;5017484;28;19925;-64
2022/09/03 11:20:07;;;;;;;;;;;28.00;99.80;;;;;;5019286;28;19972;-64
2022/09/03 11:22:34;;;;;;;;;;;27.90;99.90;;;;;;5016192;28;19940;-64
2022/09/03 11:25:01;;;;;;;;;;;27.80;99.80;;;;;;5017432;28;19968;-65
2022/09/03 11:27:32;;;;;;;;;;;27.90;99.90;;;;;;5016558;28;19982;-64
2022/09/03 11:30:02;;;;;;;;;;;30.50;99.30;;;;;;5011440;28;19976;-65
2022/09/03 11:32:36;;;;;;;;;;;34.00;97.40;;;;;;5020482;28;19929;-64
2022/09/03 11:35:13;;;;;;;;;;;35.80;96.00;;;;;;5015101;28;19980;-65
2022/09/03 11:37:46;;;;;;;;;;;38.20;94.60;;;;;;5012376;28;19929;-64
2022/09/03 11:40:18;;;;;;;;;;;38.60;94.00;;;;;;5038744;28;19925;-64
2022/09/03 11:42:45;;;;;;;;;;;39.90;93.20;;;;;;5012512;28;19932;-64
2022/09/03 11:45:21;;;;;;;;;;;40.90;92.30;;;;;;5010788;28;19925;-66
2022/09/03 11:47:49;;;;;;;;;;;41.80;91.60;;;;;;5013381;28;19925;-65
2022/09/03 11:50:19;;;;;;;;;;;43.00;91.40;;;;;;5008660;28;19979;-65
2022/09/03 11:52:47;;;;;;;;;;;43.50;90.10;;;;;;5009514;28;19925;-65
2022/09/03 11:55:24;;;;;;;;;;;43.30;89.60;;;;;;5020149;28;19993;-65
2022/09/03 11:57:51;;;;;;;;;;;42.30;89.20;;;;;;5012271;28;20365;-66
2022/09/03 12:00:21;;;;;;;;;;;42.40;89.10;;;;;;5021265;28;19929;-65
2022/09/03 12:02:50;;;;;;;;;;;42.70;88.60;;;;;;5018517;28;20298;-65
2022/09/03 12:05:21;;;;;;;;;;;41.90;89.00;;;;;;5023820;28;19926;-65
2022/09/03 12:07:56;;;;;;;;;;;42.00;88.90;;;;;;5009382;28;19965;-65
2022/09/03 12:10:31;;;;;;;;;;;42.60;89.70;;;;;;5028509;28;20419;-64
2022/09/03 12:13:03;;;;;;;;;;;43.50;88.10;;;;;;5023991;28;19929;-64
2022/09/03 12:15:38;;;;;;;;;;;42.50;88.60;;;;;;5025562;28;19929;-64
2022/09/03 12:18:19;;;;;;;;;;;41.10;89.20;;;;;;5017096;28;19925;-65
2022/09/03 12:20:46;;;;;;;;;;;42.00;88.60;;;;;;5018238;28;19960;-65
2022/09/03 12:23:14;;;;;;;;;;;42.80;88.40;;;;;;5020574;28;19968;-65
2022/09/03 12:25:44;;;;;;;;;;;42.80;87.70;;;;;;5019415;28;20023;-65
2022/09/03 12:28:12;;;;;;;;;;;43.00;87.50;;;;;;5018430;28;19933;-65
2022/09/03 12:30:38;;;;;;;;;;;43.00;86.90;;;;;;5017061;28;19960;-65
2022/09/03 12:33:10;;;;;;;;;;;41.70;87.30;;;;;;5024670;28;19925;-66
2022/09/03 12:35:37;;;;;;;;;;;42.00;87.00;;;;;;5017261;28;19972;-65
2022/09/03 12:38:04;;;;;;;;;;;41.80;86.90;;;;;;5020238;28;19929;-66
2022/09/03 12:40:31;;;;;;;;;;;41.90;87.10;;;;;;5014975;28;19929;-66
2022/09/03 12:43:12;;;;;;;;;;;41.60;86.60;;;;;;5010589;28;20294;-65
2022/09/03 12:45:42;;;;;;;;;;;41.90;87.80;;;;;;5016112;28;19925;-66
2022/09/03 12:48:15;;;;;;;;;;;42.30;86.10;;;;;;5017224;28;20397;-66
2022/09/03 12:50:42;;;;;;;;;;;42.60;86.30;;;;;;5011278;28;19926;-66
2022/09/03 12:53:11;;;;;;;;;;;42.50;86.30;;;;;;5013090;28;19968;-66
2022/09/03 12:55:39;;;;;;;;;;;42.00;85.70;;;;;;5010641;28;19972;-66
2022/09/03 12:58:07;;;;;;;;;;;41.20;85.90;;;;;;5016480;28;20312;-65
2022/09/03 13:00:36;;;;;;;;;;;41.20;87.30;;;;;;5011437;28;19932;-67
2022/09/03 13:03:04;;;;;;;;;;;42.00;86.50;;;;;;5022673;28;19934;-67
2022/09/03 13:05:34;;;;;;;;;;;41.70;86.50;;;;;;5009282;28;19929;-67
2022/09/03 13:08:02;;;;;;;;;;;41.10;87.10;;;;;;5016397;28;19929;-74
2022/09/03 13:10:31;;;;;;;;;;;40.30;86.90;;;;;;5015237;28;20389;-67
2022/09/03 13:12:58;;;;;;;;;;;39.50;87.00;;;;;;5017812;28;20321;-68
2022/09/03 13:15:26;;;;;;;;;;;40.00;87.70;;;;;;5019226;28;19928;-68
2022/09/03 13:18:11;;;;;;;;;;;41.30;86.70;;;;;;5022282;28;20084;-68
2022/09/03 13:20:43;;;;;;;;;;;41.40;86.60;;;;;;5016869;28;19926;-67
2022/09/03 13:23:15;;;;;;;;;;;39.90;86.40;;;;;;5012874;28;20392;-68
2022/09/03 13:25:49;;;;;;;;;;;37.30;88.50;;;;;;5020313;28;19925;-68
2022/09/03 13:28:26;;;;;;;;;;;36.20;90.00;;;;;;5023445;28;19932;-68
2022/09/03 13:30:55;;;;;;;;;;;35.70;89.90;;;;;;5020386;28;19937;-68
2022/09/03 13:33:23;;;;;;;;;;;34.20;90.90;;;;;;5016020;28;20277;-68
2022/09/03 13:35:55;;;;;;;;;;;33.20;91.60;;;;;;5017973;28;20385;-67
2022/09/03 13:38:25;;;;;;;;;;;32.90;91.70;;;;;;5024492;28;19979;-68
2022/09/03 13:40:54;;;;;;;;;;;33.10;91.80;;;;;;5023958;28;19929;-67
2022/09/03 13:43:26;;;;;;;;;;;33.00;91.80;;;;;;5021741;28;19952;-68
2022/09/03 13:45:54;;;;;;;;;;;33.30;91.80;;;;;;5024661;28;19932;-66
2022/09/03 13:51:14;;;;;;;;;;;34.90;92.00;;;;;;5026406;28;19921;-66
2022/09/03 13:53:45;;;;;;;;;;;36.70;91.10;;;;;;5017336;28;19929;-66
2022/09/03 13:56:18;;;;;;;;;;;37.70;90.50;;;;;;5023883;28;20036;-66
2022/09/03 13:58:48;;;;;;;;;;;38.80;90.20;;;;;;5006732;28;19975;-66
2022/09/03 14:01:19;;;;;;;;;;;39.20;90.00;;;;;;5012953;28;20328;-66
2022/09/03 14:03:47;;;;;;;;;;;39.20;90.00;;;;;;5020835;28;19925;-66
2022/09/03 14:06:20;;;;;;;;;;;38.50;89.10;;;;;;5020134;28;19983;-66
2022/09/03 14:08:59;;;;;;;;;;;37.10;90.20;;;;;;5018800;28;19925;-66
2022/09/03 14:11:30;;;;;;;;;;;35.60;90.50;;;;;;5016961;28;19982;-66
2022/09/03 14:14:02;;;;;;;;;;;34.50;91.00;;;;;;5020306;28;20351;-67
2022/09/03 14:16:31;;;;;;;;;;;33.70;91.50;;;;;;5022200;28;19971;-66
2022/09/03 14:19:00;;;;;;;;;;;33.40;92.10;;;;;;5019387;28;19925;-66
2022/09/03 14:21:30;;;;;;;;;;;32.80;92.60;;;;;;5016711;28;20290;-66
2022/09/03 14:24:01;;;;;;;;;;;32.30;93.00;;;;;;5027566;28;19972;-66
2022/09/03 14:26:30;;;;;;;;;;;31.80;93.50;;;;;;5019372;28;20028;-66
2022/09/03 14:29:02;;;;;;;;;;;31.70;93.40;;;;;;5008599;28;19929;-66
2022/09/03 14:31:35;;;;;;;;;;;31.50;94.00;;;;;;5025521;28;19975;-66
2022/09/03 14:34:07;;;;;;;;;;;31.20;94.10;;;;;;5019476;28;20374;-66